Allenton, Wisconsin
Current Conditions -  °F | °C
As of 8:35 AM on Friday 28 Nov 2014 (Local Time) from KETB Reporting Station
Light Snow Light Snow  
Wind Chill:   Ceiling: 6500
Heat Index: 18°   Visibility: 10mi
Dew Point: 12°   Wind: 6mph
Humidity: 79%   Direction: 150°SSE
Pressure: 30.18"   Gusts: NA
Location:  43.42°N, 88.34°W
Report Text: KETB 281435Z AUTO 15005KT 10SM -SN SCT055 OVC065 M08/M11 A3018 RMK AO2
Loading
Personal Weather Stations






























Interactive Weather Map New forecast layout! Learn more

10-Day Weather Forecast

Advertisements
Track Severe Weather on mobile